sensor_id;sensor_type;location;lat;lon;timestamp;temperature;humidity
5554;DHT22;2800;49.528;8.666;2023-12-29T00:00:02;9.10;99.90
5554;DHT22;2800;49.528;8.666;2023-12-29T00:02:28;9.00;99.90
5554;DHT22;2800;49.528;8.666;2023-12-29T00:04:54;9.00;99.90
5554;DHT22;2800;49.528;8.666;2023-12-29T00:07:19;9.00;99.90
5554;DHT22;2800;49.528;8.666;2023-12-29T00:09:45;9.00;99.90
5554;DHT22;2800;49.528;8.666;2023-12-29T00:12:10;9.00;99.90
5554;DHT22;2800;49.528;8.666;2023-12-29T00:14:40;9.00;99.90
5554;DHT22;2800;49.528;8.666;2023-12-29T00:17:05;8.90;99.90
5554;DHT22;2800;49.528;8.666;2023-12-29T00:19:31;8.90;99.90
5554;DHT22;2800;49.528;8.666;2023-12-29T00:21:56;8.90;99.90
5554;DHT22;2800;49.528;8.666;2023-12-29T00:24:22;9.00;99.90
5554;DHT22;2800;49.528;8.666;2023-12-29T00:26:47;8.90;99.90
5554;DHT22;2800;49.528;8.666;2023-12-29T00:29:16;8.90;99.90
5554;DHT22;2800;49.528;8.666;2023-12-29T00:31:41;9.00;99.90
5554;DHT22;2800;49.528;8.666;2023-12-29T00:34:07;9.00;99.90
5554;DHT22;2800;49.528;8.666;2023-12-29T00:36:32;9.00;99.90
5554;DHT22;2800;49.528;8.666;2023-12-29T00:38:58;8.90;99.90
5554;DHT22;2800;49.528;8.666;2023-12-29T00:41:23;8.90;99.90
5554;DHT22;2800;49.528;8.666;2023-12-29T00:43:49;8.90;99.90
5554;DHT22;2800;49.528;8.666;2023-12-29T00:46:15;8.90;99.90
5554;DHT22;2800;49.528;8.666;2023-12-29T00:48:43;9.00;99.90
5554;DHT22;2800;49.528;8.666;2023-12-29T00:51:09;9.00;99.90
5554;DHT22;2800;49.528;8.666;2023-12-29T00:53:35;9.00;99.90
5554;DHT22;2800;49.528;8.666;2023-12-29T00:56:00;9.00;99.90
5554;DHT22;2800;49.528;8.666;2023-12-29T00:58:26;9.00;99.90
5554;DHT22;2800;49.528;8.666;2023-12-29T01:00:52;9.10;99.90
5554;DHT22;2800;49.528;8.666;2023-12-29T01:03:18;9.10;99.90
5554;DHT22;2800;49.528;8.666;2023-12-29T01:05:43;9.10;99.90
5554;DHT22;2800;49.528;8.666;2023-12-29T01:08:09;9.10;99.90
5554;DHT22;2800;49.528;8.666;2023-12-29T01:10:34;9.00;99.90
5554;DHT22;2800;49.528;8.666;2023-12-29T01:13:00;9.00;99.90
5554;DHT22;2800;49.528;8.666;2023-12-29T01:15:25;9.00;99.90
5554;DHT22;2800;49.528;8.666;2023-12-29T01:17:51;9.00;99.90
5554;DHT22;2800;49.528;8.666;2023-12-29T01:20:17;9.00;99.90
5554;DHT22;2800;49.528;8.666;2023-12-29T01:22:42;9.00;99.90
5554;DHT22;2800;49.528;8.666;2023-12-29T01:25:08;9.10;99.90
5554;DHT22;2800;49.528;8.666;2023-12-29T01:27:33;9.10;99.90
5554;DHT22;2800;49.528;8.666;2023-12-29T01:30:00;9.10;99.90
5554;DHT22;2800;49.528;8.666;2023-12-29T01:32:26;9.10;99.90
5554;DHT22;2800;49.528;8.666;2023-12-29T01:34:54;9.00;99.90
5554;DHT22;2800;49.528;8.666;2023-12-29T01:37:20;9.00;99.90
5554;DHT22;2800;49.528;8.666;2023-12-29T01:39:45;8.90;99.90
5554;DHT22;2800;49.528;8.666;2023-12-29T01:42:11;8.90;99.90
5554;DHT22;2800;49.528;8.666;2023-12-29T01:44:36;8.90;99.90
5554;DHT22;2800;49.528;8.666;2023-12-29T01:47:10;8.90;99.90
5554;DHT22;2800;49.528;8.666;2023-12-29T01:49:36;8.90;99.90
5554;DHT22;2800;49.528;8.666;2023-12-29T01:52:03;8.90;99.90
5554;DHT22;2800;49.528;8.666;2023-12-29T01:54:32;8.80;99.90
5554;DHT22;2800;49.528;8.666;2023-12-29T01:57:00;8.80;99.90
5554;DHT22;2800;49.528;8.666;2023-12-29T01:59:26;8.80;99.90
5554;DHT22;2800;49.528;8.666;2023-12-29T02:01:56;8.80;99.90
5554;DHT22;2800;49.528;8.666;2023-12-29T02:04:23;8.70;99.90
5554;DHT22;2800;49.528;8.666;2023-12-29T02:06:49;8.70;99.90
5554;DHT22;2800;49.528;8.666;2023-12-29T02:09:17;8.70;99.90
5554;DHT22;2800;49.528;8.666;2023-12-29T02:11:42;8.70;99.90
5554;DHT22;2800;49.528;8.666;2023-12-29T02:14:08;8.70;99.90
5554;DHT22;2800;49.528;8.666;2023-12-29T02:22:05;8.80;99.90
5554;DHT22;2800;49.528;8.666;2023-12-29T02:24:32;8.80;99.90
5554;DHT22;2800;49.528;8.666;2023-12-29T02:30:09;8.90;99.90
5554;DHT22;2800;49.528;8.666;2023-12-29T02:32:39;8.80;99.90
5554;DHT22;2800;49.528;8.666;2023-12-29T02:35:08;8.80;99.90
5554;DHT22;2800;49.528;8.666;2023-12-29T02:37:36;8.80;99.90
5554;DHT22;2800;49.528;8.666;2023-12-29T02:40:02;8.80;99.90
5554;DHT22;2800;49.528;8.666;2023-12-29T02:42:28;8.80;99.90
5554;DHT22;2800;49.528;8.666;2023-12-29T02:44:53;8.80;99.90
5554;DHT22;2800;49.528;8.666;2023-12-29T02:47:19;8.80;99.90
5554;DHT22;2800;49.528;8.666;2023-12-29T02:49:47;8.80;99.90
5554;DHT22;2800;49.528;8.666;2023-12-29T02:52:15;8.80;99.90
5554;DHT22;2800;49.528;8.666;2023-12-29T02:54:40;8.90;99.90
5554;DHT22;2800;49.528;8.666;2023-12-29T02:57:06;8.90;99.90
5554;DHT22;2800;49.528;8.666;2023-12-29T02:59:31;8.80;99.90
5554;DHT22;2800;49.528;8.666;2023-12-29T03:01:57;8.80;99.90
5554;DHT22;2800;49.528;8.666;2023-12-29T03:04:22;8.80;99.90
5554;DHT22;2800;49.528;8.666;2023-12-29T03:06:48;8.80;99.90
5554;DHT22;2800;49.528;8.666;2023-12-29T03:09:13;8.90;99.90
5554;DHT22;2800;49.528;8.666;2023-12-29T03:11:39;8.90;99.90
5554;DHT22;2800;49.528;8.666;2023-12-29T03:14:04;8.90;99.90
5554;DHT22;2800;49.528;8.666;2023-12-29T03:16:30;8.80;99.90
5554;DHT22;2800;49.528;8.666;2023-12-29T03:18:55;8.90;99.90
5554;DHT22;2800;49.528;8.666;2023-12-29T03:21:21;8.90;99.90
5554;DHT22;2800;49.528;8.666;2023-12-29T03:23:47;8.90;99.90
5554;DHT22;2800;49.528;8.666;2023-12-29T03:26:12;9.00;99.90
5554;DHT22;2800;49.528;8.666;2023-12-29T03:28:38;9.00;99.90
5554;DHT22;2800;49.528;8.666;2023-12-29T03:31:03;9.00;99.90
5554;DHT22;2800;49.528;8.666;2023-12-29T03:33:29;9.00;99.90
5554;DHT22;2800;49.528;8.666;2023-12-29T03:35:55;9.00;99.90
5554;DHT22;2800;49.528;8.666;2023-12-29T03:38:20;9.00;99.90
5554;DHT22;2800;49.528;8.666;2023-12-29T03:40:46;9.10;99.90
5554;DHT22;2800;49.528;8.666;2023-12-29T03:43:11;9.10;99.90
5554;DHT22;2800;49.528;8.666;2023-12-29T03:45:37;9.20;99.90
5554;DHT22;2800;49.528;8.666;2023-12-29T03:48:03;9.20;99.90
5554;DHT22;2800;49.528;8.666;2023-12-29T03:50:28;9.20;99.90
5554;DHT22;2800;49.528;8.666;2023-12-29T03:52:54;9.20;99.90
5554;DHT22;2800;49.528;8.666;2023-12-29T03:55:19;9.20;99.90
5554;DHT22;2800;49.528;8.666;2023-12-29T03:57:45;9.20;99.90
5554;DHT22;2800;49.528;8.666;2023-12-29T04:00:14;9.30;99.90
5554;DHT22;2800;49.528;8.666;2023-12-29T04:02:40;9.30;99.90
5554;DHT22;2800;49.528;8.666;2023-12-29T04:05:08;9.30;99.90
5554;DHT22;2800;49.528;8.666;2023-12-29T04:07:33;9.40;99.90
5554;DHT22;2800;49.528;8.666;2023-12-29T04:09:59;9.40;99.90
5554;DHT22;2800;49.528;8.666;2023-12-29T04:12:24;9.50;99.90
5554;DHT22;2800;49.528;8.666;2023-12-29T04:14:50;9.50;99.90
5554;DHT22;2800;49.528;8.666;2023-12-29T04:17:15;9.60;99.90
5554;DHT22;2800;49.528;8.666;2023-12-29T04:19:42;9.60;99.90
5554;DHT22;2800;49.528;8.666;2023-12-29T04:22:07;9.60;99.90
5554;DHT22;2800;49.528;8.666;2023-12-29T04:24:34;9.50;99.90
5554;DHT22;2800;49.528;8.666;2023-12-29T04:26:59;9.50;99.90
5554;DHT22;2800;49.528;8.666;2023-12-29T04:29:25;9.50;99.90
5554;DHT22;2800;49.528;8.666;2023-12-29T04:31:51;9.50;99.90
5554;DHT22;2800;49.528;8.666;2023-12-29T04:34:16;9.50;99.90
5554;DHT22;2800;49.528;8.666;2023-12-29T04:36:42;9.40;99.90
5554;DHT22;2800;49.528;8.666;2023-12-29T04:39:07;9.40;99.90
5554;DHT22;2800;49.528;8.666;2023-12-29T04:41:36;9.30;99.90
5554;DHT22;2800;49.528;8.666;2023-12-29T04:44:01;9.20;99.90
5554;DHT22;2800;49.528;8.666;2023-12-29T04:46:27;9.20;99.90
5554;DHT22;2800;49.528;8.666;2023-12-29T04:48:52;9.10;99.90
5554;DHT22;2800;49.528;8.666;2023-12-29T04:51:18;9.00;99.90
5554;DHT22;2800;49.528;8.666;2023-12-29T04:53:44;8.90;99.90
5554;DHT22;2800;49.528;8.666;2023-12-29T04:56:10;8.90;99.90
5554;DHT22;2800;49.528;8.666;2023-12-29T04:58:35;8.90;99.90
5554;DHT22;2800;49.528;8.666;2023-12-29T05:01:01;8.90;99.90
5554;DHT22;2800;49.528;8.666;2023-12-29T05:03:26;8.80;99.90
5554;DHT22;2800;49.528;8.666;2023-12-29T05:05:52;8.80;99.90
5554;DHT22;2800;49.528;8.666;2023-12-29T05:08:17;8.80;99.90
5554;DHT22;2800;49.528;8.666;2023-12-29T05:10:43;8.80;99.90
5554;DHT22;2800;49.528;8.666;2023-12-29T05:13:08;8.80;99.90
5554;DHT22;2800;49.528;8.666;2023-12-29T05:15:34;8.80;99.90
5554;DHT22;2800;49.528;8.666;2023-12-29T05:17:59;8.80;99.90
5554;DHT22;2800;49.528;8.666;2023-12-29T05:20:25;8.70;99.90
5554;DHT22;2800;49.528;8.666;2023-12-29T05:22:50;8.70;99.90
5554;DHT22;2800;49.528;8.666;2023-12-29T05:25:16;8.70;99.90
5554;DHT22;2800;49.528;8.666;2023-12-29T05:27:41;8.70;99.90
5554;DHT22;2800;49.528;8.666;2023-12-29T05:30:07;8.70;99.90
5554;DHT22;2800;49.528;8.666;2023-12-29T05:32:33;8.70;99.90
5554;DHT22;2800;49.528;8.666;2023-12-29T05:34:58;8.60;99.90
5554;DHT22;2800;49.528;8.666;2023-12-29T05:37:24;8.60;99.90
5554;DHT22;2800;49.528;8.666;2023-12-29T05:39:49;8.60;99.90
5554;DHT22;2800;49.528;8.666;2023-12-29T05:42:15;8.50;99.90
5554;DHT22;2800;49.528;8.666;2023-12-29T05:44:41;8.50;99.90
5554;DHT22;2800;49.528;8.666;2023-12-29T05:47:06;8.50;99.90
5554;DHT22;2800;49.528;8.666;2023-12-29T05:49:32;8.50;99.90
5554;DHT22;2800;49.528;8.666;2023-12-29T05:52:03;8.50;99.90
5554;DHT22;2800;49.528;8.666;2023-12-29T05:54:29;8.50;99.90
5554;DHT22;2800;49.528;8.666;2023-12-29T05:56:54;8.60;99.90
5554;DHT22;2800;49.528;8.666;2023-12-29T05:59:20;8.60;99.90
5554;DHT22;2800;49.528;8.666;2023-12-29T06:01:46;8.70;99.90
5554;DHT22;2800;49.528;8.666;2023-12-29T06:04:11;8.70;99.90
5554;DHT22;2800;49.528;8.666;2023-12-29T06:06:37;8.70;99.90
5554;DHT22;2800;49.528;8.666;2023-12-29T06:09:02;8.70;99.90
5554;DHT22;2800;49.528;8.666;2023-12-29T06:11:28;8.70;99.90
5554;DHT22;2800;49.528;8.666;2023-12-29T06:13:54;8.70;99.90
5554;DHT22;2800;49.528;8.666;2023-12-29T06:16:20;8.70;99.90
5554;DHT22;2800;49.528;8.666;2023-12-29T06:18:46;8.70;99.90
5554;DHT22;2800;49.528;8.666;2023-12-29T06:21:12;8.70;99.90
5554;DHT22;2800;49.528;8.666;2023-12-29T06:23:37;8.70;99.90
5554;DHT22;2800;49.528;8.666;2023-12-29T06:26:03;8.70;99.90
5554;DHT22;2800;49.528;8.666;2023-12-29T06:28:29;8.60;99.90
5554;DHT22;2800;49.528;8.666;2023-12-29T06:30:54;8.70;99.90
5554;DHT22;2800;49.528;8.666;2023-12-29T06:33:20;8.60;99.90
5554;DHT22;2800;49.528;8.666;2023-12-29T06:35:47;8.60;99.90
5554;DHT22;2800;49.528;8.666;2023-12-29T06:38:13;8.60;99.90
5554;DHT22;2800;49.528;8.666;2023-12-29T06:40:38;8.60;99.90
5554;DHT22;2800;49.528;8.666;2023-12-29T06:43:04;8.60;99.90
5554;DHT22;2800;49.528;8.666;2023-12-29T06:45:30;8.50;99.90
5554;DHT22;2800;49.528;8.666;2023-12-29T06:47:55;8.70;99.90
5554;DHT22;2800;49.528;8.666;2023-12-29T06:50:21;8.60;99.90
5554;DHT22;2800;49.528;8.666;2023-12-29T06:52:46;8.60;99.90
5554;DHT22;2800;49.528;8.666;2023-12-29T06:55:12;8.70;99.90
5554;DHT22;2800;49.528;8.666;2023-12-29T06:57:37;8.70;99.90
5554;DHT22;2800;49.528;8.666;2023-12-29T07:00:04;8.70;99.90
5554;DHT22;2800;49.528;8.666;2023-12-29T07:02:30;8.70;99.90
5554;DHT22;2800;49.528;8.666;2023-12-29T07:04:56;8.70;99.90
5554;DHT22;2800;49.528;8.666;2023-12-29T07:07:21;8.70;99.90
5554;DHT22;2800;49.528;8.666;2023-12-29T07:09:47;8.70;99.90
5554;DHT22;2800;49.528;8.666;2023-12-29T07:12:12;8.90;99.90
5554;DHT22;2800;49.528;8.666;2023-12-29T07:14:38;8.70;99.90
5554;DHT22;2800;49.528;8.666;2023-12-29T07:17:05;8.80;99.90
5554;DHT22;2800;49.528;8.666;2023-12-29T07:19:31;8.80;99.90
5554;DHT22;2800;49.528;8.666;2023-12-29T07:22:03;8.80;99.90
5554;DHT22;2800;49.528;8.666;2023-12-29T07:24:30;8.80;99.90
5554;DHT22;2800;49.528;8.666;2023-12-29T07:26:56;8.80;99.90
5554;DHT22;2800;49.528;8.666;2023-12-29T07:29:21;8.80;99.90
5554;DHT22;2800;49.528;8.666;2023-12-29T07:31:47;8.70;99.90
5554;DHT22;2800;49.528;8.666;2023-12-29T07:34:13;8.80;99.90
5554;DHT22;2800;49.528;8.666;2023-12-29T07:36:39;8.80;99.90
5554;DHT22;2800;49.528;8.666;2023-12-29T07:39:06;8.80;99.90
5554;DHT22;2800;49.528;8.666;2023-12-29T07:41:31;8.80;99.90
5554;DHT22;2800;49.528;8.666;2023-12-29T07:43:57;8.80;99.90
5554;DHT22;2800;49.528;8.666;2023-12-29T07:46:26;8.80;99.90
5554;DHT22;2800;49.528;8.666;2023-12-29T07:48:52;8.80;99.90
5554;DHT22;2800;49.528;8.666;2023-12-29T07:51:17;8.90;99.90
5554;DHT22;2800;49.528;8.666;2023-12-29T07:53:43;8.90;99.90
5554;DHT22;2800;49.528;8.666;2023-12-29T07:56:10;8.90;99.90
5554;DHT22;2800;49.528;8.666;2023-12-29T07:58:35;8.90;99.90
5554;DHT22;2800;49.528;8.666;2023-12-29T08:01:01;8.90;99.90
5554;DHT22;2800;49.528;8.666;2023-12-29T08:03:26;8.90;99.90
5554;DHT22;2800;49.528;8.666;2023-12-29T08:05:52;8.90;99.90
5554;DHT22;2800;49.528;8.666;2023-12-29T08:08:18;8.90;99.90
5554;DHT22;2800;49.528;8.666;2023-12-29T08:10:43;8.90;99.90
5554;DHT22;2800;49.528;8.666;2023-12-29T08:13:08;8.90;99.90
5554;DHT22;2800;49.528;8.666;2023-12-29T08:15:35;8.90;99.90
5554;DHT22;2800;49.528;8.666;2023-12-29T08:18:00;8.90;99.90
5554;DHT22;2800;49.528;8.666;2023-12-29T08:20:26;8.90;99.90
5554;DHT22;2800;49.528;8.666;2023-12-29T08:22:52;8.90;99.90
5554;DHT22;2800;49.528;8.666;2023-12-29T08:25:17;8.90;99.90
5554;DHT22;2800;49.528;8.666;2023-12-29T08:27:43;9.10;99.90
5554;DHT22;2800;49.528;8.666;2023-12-29T08:30:09;9.10;99.90
5554;DHT22;2800;49.528;8.666;2023-12-29T08:32:34;9.30;99.90
5554;DHT22;2800;49.528;8.666;2023-12-29T08:35:00;9.30;99.90
5554;DHT22;2800;49.528;8.666;2023-12-29T08:37:25;9.30;99.90
5554;DHT22;2800;49.528;8.666;2023-12-29T08:39:51;9.30;99.90
5554;DHT22;2800;49.528;8.666;2023-12-29T08:42:16;9.40;99.90
5554;DHT22;2800;49.528;8.666;2023-12-29T08:44:42;9.30;99.90
5554;DHT22;2800;49.528;8.666;2023-12-29T08:47:07;9.40;99.90
5554;DHT22;2800;49.528;8.666;2023-12-29T08:49:37;9.40;99.90
5554;DHT22;2800;49.528;8.666;2023-12-29T08:52:04;9.30;99.90
5554;DHT22;2800;49.528;8.666;2023-12-29T08:54:29;9.30;99.90
5554;DHT22;2800;49.528;8.666;2023-12-29T08:56:55;9.30;99.90
5554;DHT22;2800;49.528;8.666;2023-12-29T08:59:20;9.40;99.90
5554;DHT22;2800;49.528;8.666;2023-12-29T09:01:46;9.40;99.90
5554;DHT22;2800;49.528;8.666;2023-12-29T09:04:12;9.50;99.90
5554;DHT22;2800;49.528;8.666;2023-12-29T09:06:38;9.50;99.90
5554;DHT22;2800;49.528;8.666;2023-12-29T09:09:03;9.50;99.90
5554;DHT22;2800;49.528;8.666;2023-12-29T09:11:29;9.50;99.90
5554;DHT22;2800;49.528;8.666;2023-12-29T09:13:54;9.50;99.90
5554;DHT22;2800;49.528;8.666;2023-12-29T09:16:20;9.50;99.90
5554;DHT22;2800;49.528;8.666;2023-12-29T09:18:45;9.50;99.90
5554;DHT22;2800;49.528;8.666;2023-12-29T09:21:11;9.50;99.90
5554;DHT22;2800;49.528;8.666;2023-12-29T09:23:37;9.50;99.90
5554;DHT22;2800;49.528;8.666;2023-12-29T09:26:04;9.50;99.90
5554;DHT22;2800;49.528;8.666;2023-12-29T09:28:32;9.40;99.90
5554;DHT22;2800;49.528;8.666;2023-12-29T09:30:57;9.40;99.90
5554;DHT22;2800;49.528;8.666;2023-12-29T09:33:23;9.40;99.90
5554;DHT22;2800;49.528;8.666;2023-12-29T09:35:50;9.30;99.90
5554;DHT22;2800;49.528;8.666;2023-12-29T09:38:16;9.20;99.90
5554;DHT22;2800;49.528;8.666;2023-12-29T09:40:41;9.20;99.90
5554;DHT22;2800;49.528;8.666;2023-12-29T09:43:08;9.20;99.90
5554;DHT22;2800;49.528;8.666;2023-12-29T09:45:37;9.20;99.90
5554;DHT22;2800;49.528;8.666;2023-12-29T09:48:07;9.30;99.90
5554;DHT22;2800;49.528;8.666;2023-12-29T09:50:32;9.30;99.90
5554;DHT22;2800;49.528;8.666;2023-12-29T09:53:02;9.40;99.90
5554;DHT22;2800;49.528;8.666;2023-12-29T09:55:28;9.40;99.90
5554;DHT22;2800;49.528;8.666;2023-12-29T09:57:54;9.40;99.90
5554;DHT22;2800;49.528;8.666;2023-12-29T10:00:20;9.50;99.90
5554;DHT22;2800;49.528;8.666;2023-12-29T10:02:46;9.60;99.90
5554;DHT22;2800;49.528;8.666;2023-12-29T10:05:14;9.80;99.90
5554;DHT22;2800;49.528;8.666;2023-12-29T10:07:43;9.80;99.90
5554;DHT22;2800;49.528;8.666;2023-12-29T10:10:15;10.00;99.90
5554;DHT22;2800;49.528;8.666;2023-12-29T10:12:41;10.10;99.90
5554;DHT22;2800;49.528;8.666;2023-12-29T10:15:21;10.20;99.90
5554;DHT22;2800;49.528;8.666;2023-12-29T10:23:17;10.20;99.90
5554;DHT22;2800;49.528;8.666;2023-12-29T10:25:44;10.10;99.90
5554;DHT22;2800;49.528;8.666;2023-12-29T10:28:09;10.10;99.90
5554;DHT22;2800;49.528;8.666;2023-12-29T10:30:35;10.10;99.90
5554;DHT22;2800;49.528;8.666;2023-12-29T10:33:04;10.10;99.90
5554;DHT22;2800;49.528;8.666;2023-12-29T10:35:30;10.10;99.90
5554;DHT22;2800;49.528;8.666;2023-12-29T10:38:08;10.10;99.90
5554;DHT22;2800;49.528;8.666;2023-12-29T10:40:35;10.10;99.90
5554;DHT22;2800;49.528;8.666;2023-12-29T10:43:00;10.10;99.90
5554;DHT22;2800;49.528;8.666;2023-12-29T10:45:32;10.20;99.90
5554;DHT22;2800;49.528;8.666;2023-12-29T10:47:59;10.30;99.90
5554;DHT22;2800;49.528;8.666;2023-12-29T10:50:25;10.30;99.90
5554;DHT22;2800;49.528;8.666;2023-12-29T10:53:10;10.30;99.90
5554;DHT22;2800;49.528;8.666;2023-12-29T10:55:35;10.40;99.90
5554;DHT22;2800;49.528;8.666;2023-12-29T10:58:01;10.50;99.90
5554;DHT22;2800;49.528;8.666;2023-12-29T11:00:30;10.50;99.90
5554;DHT22;2800;49.528;8.666;2023-12-29T11:02:58;10.50;99.90
5554;DHT22;2800;49.528;8.666;2023-12-29T11:05:25;10.50;99.90
5554;DHT22;2800;49.528;8.666;2023-12-29T11:07:52;10.50;99.90
5554;DHT22;2800;49.528;8.666;2023-12-29T11:10:22;10.60;99.90
5554;DHT22;2800;49.528;8.666;2023-12-29T11:12:49;10.50;99.90
5554;DHT22;2800;49.528;8.666;2023-12-29T11:15:15;10.50;99.90
5554;DHT22;2800;49.528;8.666;2023-12-29T11:17:44;10.60;99.90
5554;DHT22;2800;49.528;8.666;2023-12-29T11:20:15;10.60;99.90
5554;DHT22;2800;49.528;8.666;2023-12-29T11:22:42;10.70;99.90
5554;DHT22;2800;49.528;8.666;2023-12-29T11:25:08;10.70;99.90
5554;DHT22;2800;49.528;8.666;2023-12-29T11:27:35;10.70;99.90
5554;DHT22;2800;49.528;8.666;2023-12-29T11:30:02;10.60;99.90
5554;DHT22;2800;49.528;8.666;2023-12-29T11:35:18;10.80;99.90
5554;DHT22;2800;49.528;8.666;2023-12-29T11:40:14;11.00;99.90
5554;DHT22;2800;49.528;8.666;2023-12-29T11:42:42;11.00;99.90
5554;DHT22;2800;49.528;8.666;2023-12-29T11:45:31;11.10;99.90
5554;DHT22;2800;49.528;8.666;2023-12-29T11:48:01;11.10;99.90
5554;DHT22;2800;49.528;8.666;2023-12-29T11:53:00;11.10;99.90
5554;DHT22;2800;49.528;8.666;2023-12-29T11:55:39;11.10;99.90
5554;DHT22;2800;49.528;8.666;2023-12-29T11:58:23;11.10;99.90
5554;DHT22;2800;49.528;8.666;2023-12-29T12:00:48;11.20;99.90
5554;DHT22;2800;49.528;8.666;2023-12-29T12:05:50;11.30;99.90
5554;DHT22;2800;49.528;8.666;2023-12-29T12:08:31;11.40;99.90
5554;DHT22;2800;49.528;8.666;2023-12-29T12:13:55;11.60;99.90
5554;DHT22;2800;49.528;8.666;2023-12-29T12:16:50;11.70;99.90
5554;DHT22;2800;49.528;8.666;2023-12-29T12:19:17;11.70;99.90
5554;DHT22;2800;49.528;8.666;2023-12-29T12:21:46;11.70;99.90
5554;DHT22;2800;49.528;8.666;2023-12-29T12:24:15;11.80;99.90
5554;DHT22;2800;49.528;8.666;2023-12-29T12:26:43;11.80;99.90
5554;DHT22;2800;49.528;8.666;2023-12-29T12:29:09;11.80;99.90
5554;DHT22;2800;49.528;8.666;2023-12-29T12:31:35;11.80;99.90
5554;DHT22;2800;49.528;8.666;2023-12-29T12:34:00;11.80;99.90
5554;DHT22;2800;49.528;8.666;2023-12-29T12:36:26;11.80;99.90
5554;DHT22;2800;49.528;8.666;2023-12-29T12:38:53;11.90;99.90
5554;DHT22;2800;49.528;8.666;2023-12-29T12:41:21;11.90;99.90
5554;DHT22;2800;49.528;8.666;2023-12-29T12:46:23;11.80;99.90
5554;DHT22;2800;49.528;8.666;2023-12-29T12:48:52;11.80;99.90
5554;DHT22;2800;49.528;8.666;2023-12-29T12:51:19;11.80;99.90
5554;DHT22;2800;49.528;8.666;2023-12-29T12:53:46;11.80;99.90
5554;DHT22;2800;49.528;8.666;2023-12-29T12:56:13;11.70;99.90
5554;DHT22;2800;49.528;8.666;2023-12-29T12:58:39;11.70;99.90
5554;DHT22;2800;49.528;8.666;2023-12-29T13:01:05;11.70;99.90
5554;DHT22;2800;49.528;8.666;2023-12-29T13:03:31;11.80;99.90
5554;DHT22;2800;49.528;8.666;2023-12-29T13:05:58;11.80;99.90
5554;DHT22;2800;49.528;8.666;2023-12-29T13:08:25;11.80;99.90
5554;DHT22;2800;49.528;8.666;2023-12-29T13:10:52;11.80;99.90
5554;DHT22;2800;49.528;8.666;2023-12-29T13:13:18;11.80;99.90
5554;DHT22;2800;49.528;8.666;2023-12-29T13:15:51;11.80;99.90
5554;DHT22;2800;49.528;8.666;2023-12-29T13:18:17;11.70;99.90
5554;DHT22;2800;49.528;8.666;2023-12-29T13:20:51;11.70;99.90
5554;DHT22;2800;49.528;8.666;2023-12-29T13:23:18;11.70;99.90
5554;DHT22;2800;49.528;8.666;2023-12-29T13:25:44;11.70;99.90
5554;DHT22;2800;49.528;8.666;2023-12-29T13:28:11;11.70;99.90
5554;DHT22;2800;49.528;8.666;2023-12-29T13:30:37;11.70;99.90
5554;DHT22;2800;49.528;8.666;2023-12-29T13:33:15;11.70;99.90
5554;DHT22;2800;49.528;8.666;2023-12-29T13:35:51;11.60;99.90
5554;DHT22;2800;49.528;8.666;2023-12-29T13:38:25;11.60;99.90
5554;DHT22;2800;49.528;8.666;2023-12-29T13:40:57;11.70;99.90
5554;DHT22;2800;49.528;8.666;2023-12-29T13:43:24;11.70;99.90
5554;DHT22;2800;49.528;8.666;2023-12-29T13:45:51;11.70;99.90
5554;DHT22;2800;49.528;8.666;2023-12-29T13:48:16;11.70;99.90
5554;DHT22;2800;49.528;8.666;2023-12-29T13:50:46;11.70;99.90
5554;DHT22;2800;49.528;8.666;2023-12-29T13:53:19;11.70;99.90
5554;DHT22;2800;49.528;8.666;2023-12-29T13:55:45;11.60;99.90
5554;DHT22;2800;49.528;8.666;2023-12-29T13:58:11;11.70;99.90
5554;DHT22;2800;49.528;8.666;2023-12-29T14:00:38;11.60;99.90
5554;DHT22;2800;49.528;8.666;2023-12-29T14:03:21;11.60;99.90
5554;DHT22;2800;49.528;8.666;2023-12-29T14:05:51;11.70;99.90
5554;DHT22;2800;49.528;8.666;2023-12-29T14:08:25;11.60;99.90
5554;DHT22;2800;49.528;8.666;2023-12-29T14:10:51;11.60;99.90
5554;DHT22;2800;49.528;8.666;2023-12-29T14:13:18;11.70;99.90
5554;DHT22;2800;49.528;8.666;2023-12-29T14:15:45;11.60;99.90
5554;DHT22;2800;49.528;8.666;2023-12-29T14:24:08;11.60;99.90
5554;DHT22;2800;49.528;8.666;2023-12-29T14:26:38;11.70;99.90
5554;DHT22;2800;49.528;8.666;2023-12-29T14:29:07;11.60;99.90
5554;DHT22;2800;49.528;8.666;2023-12-29T14:31:37;11.50;99.90
5554;DHT22;2800;49.528;8.666;2023-12-29T14:34:06;11.50;99.90
5554;DHT22;2800;49.528;8.666;2023-12-29T14:36:33;11.40;99.90
5554;DHT22;2800;49.528;8.666;2023-12-29T14:38:59;11.40;99.90
5554;DHT22;2800;49.528;8.666;2023-12-29T14:41:25;11.50;99.90
5554;DHT22;2800;49.528;8.666;2023-12-29T14:43:51;11.30;99.90
5554;DHT22;2800;49.528;8.666;2023-12-29T14:46:16;11.30;99.90
5554;DHT22;2800;49.528;8.666;2023-12-29T14:48:42;11.20;99.90
5554;DHT22;2800;49.528;8.666;2023-12-29T14:51:08;11.20;99.90
5554;DHT22;2800;49.528;8.666;2023-12-29T14:53:33;11.20;99.90
5554;DHT22;2800;49.528;8.666;2023-12-29T14:55:59;11.10;99.90
5554;DHT22;2800;49.528;8.666;2023-12-29T14:58:25;11.10;99.90
5554;DHT22;2800;49.528;8.666;2023-12-29T15:00:50;11.00;99.90
5554;DHT22;2800;49.528;8.666;2023-12-29T15:03:16;11.00;99.90
5554;DHT22;2800;49.528;8.666;2023-12-29T15:05:43;10.90;99.90
5554;DHT22;2800;49.528;8.666;2023-12-29T15:08:09;10.90;99.90
5554;DHT22;2800;49.528;8.666;2023-12-29T15:10:35;10.90;99.90
5554;DHT22;2800;49.528;8.666;2023-12-29T15:13:01;10.90;99.90
5554;DHT22;2800;49.528;8.666;2023-12-29T15:15:27;10.80;99.90
5554;DHT22;2800;49.528;8.666;2023-12-29T15:17:52;10.90;99.90
5554;DHT22;2800;49.528;8.666;2023-12-29T15:20:18;10.80;99.90
5554;DHT22;2800;49.528;8.666;2023-12-29T15:22:43;10.80;99.90
5554;DHT22;2800;49.528;8.666;2023-12-29T15:25:09;10.70;99.90
5554;DHT22;2800;49.528;8.666;2023-12-29T15:27:35;10.70;99.90
5554;DHT22;2800;49.528;8.666;2023-12-29T15:30:00;10.70;99.90
5554;DHT22;2800;49.528;8.666;2023-12-29T15:32:26;10.70;99.90
5554;DHT22;2800;49.528;8.666;2023-12-29T15:34:51;10.70;99.90
5554;DHT22;2800;49.528;8.666;2023-12-29T15:37:17;10.70;99.90
5554;DHT22;2800;49.528;8.666;2023-12-29T15:39:44;10.70;99.90
5554;DHT22;2800;49.528;8.666;2023-12-29T15:42:10;10.60;99.90
5554;DHT22;2800;49.528;8.666;2023-12-29T15:44:36;10.60;99.90
5554;DHT22;2800;49.528;8.666;2023-12-29T15:47:01;10.60;99.90
5554;DHT22;2800;49.528;8.666;2023-12-29T15:49:27;10.60;99.90
5554;DHT22;2800;49.528;8.666;2023-12-29T15:51:52;10.60;99.90
5554;DHT22;2800;49.528;8.666;2023-12-29T15:54:18;10.60;99.90
5554;DHT22;2800;49.528;8.666;2023-12-29T15:56:43;10.60;99.90
5554;DHT22;2800;49.528;8.666;2023-12-29T15:59:09;10.60;99.90
5554;DHT22;2800;49.528;8.666;2023-12-29T16:01:34;10.60;99.90
5554;DHT22;2800;49.528;8.666;2023-12-29T16:04:00;10.50;99.90
5554;DHT22;2800;49.528;8.666;2023-12-29T16:06:27;10.50;99.90
5554;DHT22;2800;49.528;8.666;2023-12-29T16:08:53;10.50;99.90
5554;DHT22;2800;49.528;8.666;2023-12-29T16:11:23;10.50;99.90
5554;DHT22;2800;49.528;8.666;2023-12-29T16:13:49;10.50;99.90
5554;DHT22;2800;49.528;8.666;2023-12-29T16:16:15;10.50;99.90
5554;DHT22;2800;49.528;8.666;2023-12-29T16:18:40;10.50;99.90
5554;DHT22;2800;49.528;8.666;2023-12-29T16:21:06;10.50;99.90
5554;DHT22;2800;49.528;8.666;2023-12-29T16:23:31;10.50;99.90
5554;DHT22;2800;49.528;8.666;2023-12-29T16:25:57;10.50;99.90
5554;DHT22;2800;49.528;8.666;2023-12-29T16:28:22;10.50;99.90
5554;DHT22;2800;49.528;8.666;2023-12-29T16:30:50;10.50;99.90
5554;DHT22;2800;49.528;8.666;2023-12-29T16:33:16;10.50;99.90
5554;DHT22;2800;49.528;8.666;2023-12-29T16:35:41;10.40;99.90
5554;DHT22;2800;49.528;8.666;2023-12-29T16:38:07;10.40;99.90
5554;DHT22;2800;49.528;8.666;2023-12-29T16:40:33;10.40;99.90
5554;DHT22;2800;49.528;8.666;2023-12-29T16:42:58;10.40;99.90